sensor_id;sensor_type;location;lat;lon;timestamp;P1;durP1;ratioP1;P2;durP2;ratioP2
19414;SDS011;9843;48.882;12.592;2023-06-24T00:00:32;5.30;;;4.80;;
19414;SDS011;9843;48.882;12.592;2023-06-24T00:02:59;4.23;;;3.83;;
19414;SDS011;9843;48.882;12.592;2023-06-24T00:05:27;5.13;;;4.67;;
19414;SDS011;9843;48.882;12.592;2023-06-24T00:07:54;5.20;;;4.80;;
19414;SDS011;9843;48.882;12.592;2023-06-24T00:10:22;4.90;;;3.93;;
19414;SDS011;9843;48.882;12.592;2023-06-24T00:12:49;4.27;;;3.87;;
19414;SDS011;9843;48.882;12.592;2023-06-24T00:15:16;5.97;;;3.90;;
19414;SDS011;9843;48.882;12.592;2023-06-24T00:17:44;4.23;;;3.90;;
19414;SDS011;9843;48.882;12.592;2023-06-24T00:20:11;4.83;;;4.33;;
19414;SDS011;9843;48.882;12.592;2023-06-24T00:22:39;4.57;;;4.07;;
19414;SDS011;9843;48.882;12.592;2023-06-24T00:25:09;4.70;;;4.30;;
19414;SDS011;9843;48.882;12.592;2023-06-24T00:27:36;4.93;;;4.53;;
19414;SDS011;9843;48.882;12.592;2023-06-24T00:30:03;6.00;;;4.73;;
19414;SDS011;9843;48.882;12.592;2023-06-24T00:32:30;5.00;;;4.50;;
19414;SDS011;9843;48.882;12.592;2023-06-24T00:34:59;5.50;;;3.93;;
19414;SDS011;9843;48.882;12.592;2023-06-24T00:37:26;4.67;;;4.17;;
19414;SDS011;9843;48.882;12.592;2023-06-24T00:39:53;4.33;;;3.93;;
19414;SDS011;9843;48.882;12.592;2023-06-24T00:42:20;4.57;;;3.97;;
19414;SDS011;9843;48.882;12.592;2023-06-24T00:44:47;5.10;;;4.60;;
19414;SDS011;9843;48.882;12.592;2023-06-24T00:47:15;4.30;;;3.87;;
19414;SDS011;9843;48.882;12.592;2023-06-24T00:49:42;5.83;;;5.10;;
19414;SDS011;9843;48.882;12.592;2023-06-24T00:52:11;3.90;;;3.50;;
19414;SDS011;9843;48.882;12.592;2023-06-24T00:54:41;4.80;;;4.47;;
19414;SDS011;9843;48.882;12.592;2023-06-24T00:57:08;4.13;;;3.73;;
19414;SDS011;9843;48.882;12.592;2023-06-24T00:59:35;5.00;;;3.93;;
19414;SDS011;9843;48.882;12.592;2023-06-24T01:02:03;5.00;;;4.57;;
19414;SDS011;9843;48.882;12.592;2023-06-24T01:04:30;4.70;;;4.17;;
19414;SDS011;9843;48.882;12.592;2023-06-24T01:06:58;4.23;;;3.93;;
19414;SDS011;9843;48.882;12.592;2023-06-24T01:09:26;7.50;;;5.03;;
19414;SDS011;9843;48.882;12.592;2023-06-24T01:11:54;4.10;;;3.73;;
19414;SDS011;9843;48.882;12.592;2023-06-24T01:14:21;6.70;;;4.43;;
19414;SDS011;9843;48.882;12.592;2023-06-24T01:16:51;4.87;;;4.30;;
19414;SDS011;9843;48.882;12.592;2023-06-24T01:19:29;4.20;;;3.80;;
19414;SDS011;9843;48.882;12.592;2023-06-24T01:22:04;3.87;;;3.57;;
19414;SDS011;9843;48.882;12.592;2023-06-24T01:24:42;5.20;;;4.00;;
19414;SDS011;9843;48.882;12.592;2023-06-24T01:27:19;3.57;;;3.27;;
19414;SDS011;9843;48.882;12.592;2023-06-24T01:29:52;4.27;;;3.87;;
19414;SDS011;9843;48.882;12.592;2023-06-24T01:32:25;4.83;;;3.97;;
19414;SDS011;9843;48.882;12.592;2023-06-24T01:34:55;4.70;;;4.30;;
19414;SDS011;9843;48.882;12.592;2023-06-24T01:37:25;8.00;;;4.93;;
19414;SDS011;9843;48.882;12.592;2023-06-24T01:39:55;6.50;;;5.90;;
19414;SDS011;9843;48.882;12.592;2023-06-24T01:42:25;6.37;;;5.10;;
19414;SDS011;9843;48.882;12.592;2023-06-24T01:44:52;5.43;;;3.97;;
19414;SDS011;9843;48.882;12.592;2023-06-24T01:47:20;4.40;;;4.07;;
19414;SDS011;9843;48.882;12.592;2023-06-24T01:49:49;7.43;;;4.57;;
19414;SDS011;9843;48.882;12.592;2023-06-24T01:52:19;5.57;;;5.07;;
19414;SDS011;9843;48.882;12.592;2023-06-24T01:54:47;4.73;;;4.23;;
19414;SDS011;9843;48.882;12.592;2023-06-24T01:57:15;4.17;;;3.80;;
19414;SDS011;9843;48.882;12.592;2023-06-24T01:59:45;3.90;;;3.60;;
19414;SDS011;9843;48.882;12.592;2023-06-24T02:02:12;4.43;;;4.07;;
19414;SDS011;9843;48.882;12.592;2023-06-24T02:04:40;6.40;;;5.30;;
19414;SDS011;9843;48.882;12.592;2023-06-24T02:07:08;4.90;;;4.47;;
19414;SDS011;9843;48.882;12.592;2023-06-24T02:09:36;6.70;;;4.27;;
19414;SDS011;9843;48.882;12.592;2023-06-24T02:12:04;5.63;;;3.97;;
19414;SDS011;9843;48.882;12.592;2023-06-24T02:14:32;5.53;;;4.03;;
19414;SDS011;9843;48.882;12.592;2023-06-24T02:17:01;7.20;;;4.87;;
19414;SDS011;9843;48.882;12.592;2023-06-24T02:19:30;5.53;;;4.57;;
19414;SDS011;9843;48.882;12.592;2023-06-24T02:21:57;4.27;;;3.83;;
19414;SDS011;9843;48.882;12.592;2023-06-24T02:24:26;4.00;;;3.60;;
19414;SDS011;9843;48.882;12.592;2023-06-24T02:26:54;6.10;;;4.67;;
19414;SDS011;9843;48.882;12.592;2023-06-24T02:29:24;4.37;;;3.73;;
19414;SDS011;9843;48.882;12.592;2023-06-24T02:31:52;8.07;;;5.73;;
19414;SDS011;9843;48.882;12.592;2023-06-24T02:34:19;4.77;;;4.33;;
19414;SDS011;9843;48.882;12.592;2023-06-24T02:36:46;4.03;;;3.63;;
19414;SDS011;9843;48.882;12.592;2023-06-24T02:39:13;5.07;;;4.63;;
19414;SDS011;9843;48.882;12.592;2023-06-24T02:41:42;4.43;;;4.03;;
19414;SDS011;9843;48.882;12.592;2023-06-24T02:44:09;5.13;;;4.63;;
19414;SDS011;9843;48.882;12.592;2023-06-24T02:46:37;5.73;;;4.07;;
19414;SDS011;9843;48.882;12.592;2023-06-24T02:49:05;6.97;;;4.10;;
19414;SDS011;9843;48.882;12.592;2023-06-24T02:51:33;4.00;;;3.60;;
19414;SDS011;9843;48.882;12.592;2023-06-24T02:54:00;4.90;;;4.50;;
19414;SDS011;9843;48.882;12.592;2023-06-24T02:56:28;4.23;;;3.83;;
19414;SDS011;9843;48.882;12.592;2023-06-24T02:58:56;6.17;;;5.03;;
19414;SDS011;9843;48.882;12.592;2023-06-24T03:01:23;5.40;;;4.27;;
19414;SDS011;9843;48.882;12.592;2023-06-24T03:03:51;4.20;;;3.80;;
19414;SDS011;9843;48.882;12.592;2023-06-24T03:06:19;4.53;;;4.00;;
19414;SDS011;9843;48.882;12.592;2023-06-24T03:08:47;5.57;;;4.47;;
19414;SDS011;9843;48.882;12.592;2023-06-24T03:11:14;4.73;;;4.33;;
19414;SDS011;9843;48.882;12.592;2023-06-24T03:13:41;4.97;;;4.40;;
19414;SDS011;9843;48.882;12.592;2023-06-24T03:16:10;5.73;;;5.13;;
19414;SDS011;9843;48.882;12.592;2023-06-24T03:18:39;6.13;;;4.47;;
19414;SDS011;9843;48.882;12.592;2023-06-24T03:21:06;4.20;;;3.90;;
19414;SDS011;9843;48.882;12.592;2023-06-24T03:23:33;6.70;;;4.23;;
19414;SDS011;9843;48.882;12.592;2023-06-24T03:26:00;4.30;;;3.90;;
19414;SDS011;9843;48.882;12.592;2023-06-24T03:28:28;4.70;;;4.30;;
19414;SDS011;9843;48.882;12.592;2023-06-24T03:30:55;4.27;;;3.87;;
19414;SDS011;9843;48.882;12.592;2023-06-24T03:33:23;4.50;;;4.10;;
19414;SDS011;9843;48.882;12.592;2023-06-24T03:35:51;5.63;;;5.13;;
19414;SDS011;9843;48.882;12.592;2023-06-24T03:38:19;4.90;;;4.43;;
19414;SDS011;9843;48.882;12.592;2023-06-24T03:40:46;4.17;;;3.77;;
19414;SDS011;9843;48.882;12.592;2023-06-24T03:43:13;5.13;;;4.63;;
19414;SDS011;9843;48.882;12.592;2023-06-24T03:45:40;4.73;;;4.30;;
19414;SDS011;9843;48.882;12.592;2023-06-24T03:48:07;7.27;;;5.27;;
19414;SDS011;9843;48.882;12.592;2023-06-24T03:50:35;4.83;;;4.43;;
19414;SDS011;9843;48.882;12.592;2023-06-24T03:53:03;8.63;;;4.70;;
19414;SDS011;9843;48.882;12.592;2023-06-24T03:55:30;4.63;;;4.23;;
19414;SDS011;9843;48.882;12.592;2023-06-24T03:57:57;6.77;;;4.60;;
19414;SDS011;9843;48.882;12.592;2023-06-24T04:00:25;5.20;;;4.70;;
19414;SDS011;9843;48.882;12.592;2023-06-24T04:02:52;5.17;;;4.67;;
19414;SDS011;9843;48.882;12.592;2023-06-24T04:05:19;5.23;;;4.63;;
19414;SDS011;9843;48.882;12.592;2023-06-24T04:07:48;5.20;;;4.73;;
19414;SDS011;9843;48.882;12.592;2023-06-24T04:10:16;4.93;;;4.50;;
19414;SDS011;9843;48.882;12.592;2023-06-24T04:12:43;7.10;;;5.83;;
19414;SDS011;9843;48.882;12.592;2023-06-24T04:15:11;5.80;;;4.90;;
19414;SDS011;9843;48.882;12.592;2023-06-24T04:17:38;5.77;;;5.17;;
19414;SDS011;9843;48.882;12.592;2023-06-24T04:20:05;5.77;;;5.27;;
19414;SDS011;9843;48.882;12.592;2023-06-24T04:22:33;5.77;;;4.93;;
19414;SDS011;9843;48.882;12.592;2023-06-24T04:25:02;5.63;;;4.40;;
19414;SDS011;9843;48.882;12.592;2023-06-24T04:27:31;6.17;;;4.93;;
19414;SDS011;9843;48.882;12.592;2023-06-24T04:29:58;5.33;;;4.83;;
19414;SDS011;9843;48.882;12.592;2023-06-24T04:32:25;7.03;;;5.07;;
19414;SDS011;9843;48.882;12.592;2023-06-24T04:34:52;6.80;;;6.13;;
19414;SDS011;9843;48.882;12.592;2023-06-24T04:37:19;5.53;;;5.03;;
19414;SDS011;9843;48.882;12.592;2023-06-24T04:39:46;7.97;;;4.77;;
19414;SDS011;9843;48.882;12.592;2023-06-24T04:42:16;7.60;;;5.80;;
19414;SDS011;9843;48.882;12.592;2023-06-24T04:44:43;6.23;;;5.53;;
19414;SDS011;9843;48.882;12.592;2023-06-24T04:47:10;7.43;;;5.97;;
19414;SDS011;9843;48.882;12.592;2023-06-24T04:49:38;6.00;;;5.13;;
19414;SDS011;9843;48.882;12.592;2023-06-24T04:52:06;5.73;;;5.03;;
19414;SDS011;9843;48.882;12.592;2023-06-24T04:54:33;4.97;;;4.43;;
19414;SDS011;9843;48.882;12.592;2023-06-24T04:57:00;8.63;;;5.17;;
19414;SDS011;9843;48.882;12.592;2023-06-24T04:59:28;6.57;;;5.13;;
19414;SDS011;9843;48.882;12.592;2023-06-24T05:01:55;6.73;;;5.87;;
19414;SDS011;9843;48.882;12.592;2023-06-24T05:04:22;6.50;;;5.90;;
19414;SDS011;9843;48.882;12.592;2023-06-24T05:06:49;6.00;;;4.97;;
19414;SDS011;9843;48.882;12.592;2023-06-24T05:09:17;5.93;;;5.43;;
19414;SDS011;9843;48.882;12.592;2023-06-24T05:11:44;5.47;;;4.97;;
19414;SDS011;9843;48.882;12.592;2023-06-24T05:14:11;6.87;;;5.87;;
19414;SDS011;9843;48.882;12.592;2023-06-24T05:16:39;6.00;;;5.47;;
19414;SDS011;9843;48.882;12.592;2023-06-24T05:19:06;7.27;;;5.07;;
19414;SDS011;9843;48.882;12.592;2023-06-24T05:21:33;10.43;;;5.77;;
19414;SDS011;9843;48.882;12.592;2023-06-24T05:24:00;6.63;;;4.83;;
19414;SDS011;9843;48.882;12.592;2023-06-24T05:26:27;7.80;;;6.17;;
19414;SDS011;9843;48.882;12.592;2023-06-24T05:28:54;7.53;;;6.07;;
19414;SDS011;9843;48.882;12.592;2023-06-24T05:31:21;6.77;;;6.03;;
19414;SDS011;9843;48.882;12.592;2023-06-24T05:33:50;5.83;;;4.83;;
19414;SDS011;9843;48.882;12.592;2023-06-24T05:36:17;7.57;;;5.73;;
19414;SDS011;9843;48.882;12.592;2023-06-24T05:38:44;6.43;;;5.23;;
19414;SDS011;9843;48.882;12.592;2023-06-24T05:41:11;6.53;;;5.27;;
19414;SDS011;9843;48.882;12.592;2023-06-24T05:43:38;6.53;;;5.80;;
19414;SDS011;9843;48.882;12.592;2023-06-24T05:46:05;6.03;;;5.43;;
19414;SDS011;9843;48.882;12.592;2023-06-24T05:48:32;5.90;;;5.30;;
19414;SDS011;9843;48.882;12.592;2023-06-24T05:51:00;8.70;;;5.40;;
19414;SDS011;9843;48.882;12.592;2023-06-24T05:53:27;4.97;;;4.47;;
19414;SDS011;9843;48.882;12.592;2023-06-24T05:55:54;8.13;;;5.10;;
19414;SDS011;9843;48.882;12.592;2023-06-24T05:58:21;6.87;;;6.20;;
19414;SDS011;9843;48.882;12.592;2023-06-24T06:00:48;9.53;;;6.27;;
19414;SDS011;9843;48.882;12.592;2023-06-24T06:03:15;5.53;;;4.90;;
19414;SDS011;9843;48.882;12.592;2023-06-24T06:05:42;6.13;;;5.53;;
19414;SDS011;9843;48.882;12.592;2023-06-24T06:08:11;5.40;;;4.53;;
19414;SDS011;9843;48.882;12.592;2023-06-24T06:10:38;7.53;;;6.07;;
19414;SDS011;9843;48.882;12.592;2023-06-24T06:13:05;7.93;;;6.77;;
19414;SDS011;9843;48.882;12.592;2023-06-24T06:15:32;7.33;;;5.30;;
19414;SDS011;9843;48.882;12.592;2023-06-24T06:17:59;5.43;;;4.70;;
19414;SDS011;9843;48.882;12.592;2023-06-24T06:20:26;5.03;;;4.60;;
19414;SDS011;9843;48.882;12.592;2023-06-24T06:22:53;6.03;;;5.40;;
19414;SDS011;9843;48.882;12.592;2023-06-24T06:25:21;5.40;;;4.47;;
19414;SDS011;9843;48.882;12.592;2023-06-24T06:27:48;7.80;;;5.07;;
19414;SDS011;9843;48.882;12.592;2023-06-24T06:30:15;6.17;;;4.30;;
19414;SDS011;9843;48.882;12.592;2023-06-24T06:32:42;5.17;;;4.57;;
19414;SDS011;9843;48.882;12.592;2023-06-24T06:35:10;8.03;;;4.43;;
19414;SDS011;9843;48.882;12.592;2023-06-24T06:37:37;8.23;;;4.53;;
19414;SDS011;9843;48.882;12.592;2023-06-24T06:40:04;5.73;;;5.13;;
19414;SDS011;9843;48.882;12.592;2023-06-24T06:42:33;5.40;;;4.77;;
19414;SDS011;9843;48.882;12.592;2023-06-24T06:45:00;13.00;;;4.80;;
19414;SDS011;9843;48.882;12.592;2023-06-24T06:47:27;7.77;;;4.23;;
19414;SDS011;9843;48.882;12.592;2023-06-24T06:49:54;4.97;;;4.40;;
19414;SDS011;9843;48.882;12.592;2023-06-24T06:52:21;7.40;;;4.40;;
19414;SDS011;9843;48.882;12.592;2023-06-24T06:54:48;5.27;;;4.77;;
19414;SDS011;9843;48.882;12.592;2023-06-24T06:57:15;7.23;;;4.77;;
19414;SDS011;9843;48.882;12.592;2023-06-24T06:59:44;6.60;;;4.97;;
19414;SDS011;9843;48.882;12.592;2023-06-24T07:02:11;5.33;;;4.80;;
19414;SDS011;9843;48.882;12.592;2023-06-24T07:04:38;6.97;;;5.70;;
19414;SDS011;9843;48.882;12.592;2023-06-24T07:07:05;5.20;;;4.70;;
19414;SDS011;9843;48.882;12.592;2023-06-24T07:09:32;4.93;;;4.43;;
19414;SDS011;9843;48.882;12.592;2023-06-24T07:11:59;5.30;;;4.23;;
19414;SDS011;9843;48.882;12.592;2023-06-24T07:14:26;5.70;;;4.77;;
19414;SDS011;9843;48.882;12.592;2023-06-24T07:16:54;7.47;;;4.77;;
19414;SDS011;9843;48.882;12.592;2023-06-24T07:19:21;5.67;;;3.47;;
19414;SDS011;9843;48.882;12.592;2023-06-24T07:21:48;6.20;;;4.03;;
19414;SDS011;9843;48.882;12.592;2023-06-24T07:24:17;4.73;;;4.23;;
19414;SDS011;9843;48.882;12.592;2023-06-24T07:26:44;6.30;;;5.33;;
19414;SDS011;9843;48.882;12.592;2023-06-24T07:29:11;6.83;;;4.03;;
19414;SDS011;9843;48.882;12.592;2023-06-24T07:31:38;5.47;;;4.27;;
19414;SDS011;9843;48.882;12.592;2023-06-24T07:34:06;4.40;;;4.00;;
19414;SDS011;9843;48.882;12.592;2023-06-24T07:36:33;4.43;;;3.40;;
19414;SDS011;9843;48.882;12.592;2023-06-24T07:39:00;6.53;;;4.27;;
19414;SDS011;9843;48.882;12.592;2023-06-24T07:41:28;7.30;;;3.80;;
19414;SDS011;9843;48.882;12.592;2023-06-24T07:43:55;4.70;;;3.87;;
19414;SDS011;9843;48.882;12.592;2023-06-24T07:46:22;8.20;;;4.53;;
19414;SDS011;9843;48.882;12.592;2023-06-24T07:48:52;4.33;;;3.93;;
19414;SDS011;9843;48.882;12.592;2023-06-24T07:51:20;6.37;;;5.13;;
19414;SDS011;9843;48.882;12.592;2023-06-24T07:53:47;6.33;;;3.63;;
19414;SDS011;9843;48.882;12.592;2023-06-24T07:56:14;5.80;;;4.23;;
19414;SDS011;9843;48.882;12.592;2023-06-24T07:58:41;5.80;;;4.23;;
19414;SDS011;9843;48.882;12.592;2023-06-24T08:01:08;4.97;;;4.43;;
19414;SDS011;9843;48.882;12.592;2023-06-24T08:03:35;4.50;;;3.87;;
19414;SDS011;9843;48.882;12.592;2023-06-24T08:06:02;4.47;;;3.30;;
19414;SDS011;9843;48.882;12.592;2023-06-24T08:08:31;7.10;;;4.13;;
19414;SDS011;9843;48.882;12.592;2023-06-24T08:10:58;6.83;;;5.13;;
19414;SDS011;9843;48.882;12.592;2023-06-24T08:13:25;6.37;;;3.73;;
19414;SDS011;9843;48.882;12.592;2023-06-24T08:15:52;6.83;;;4.77;;
19414;SDS011;9843;48.882;12.592;2023-06-24T08:18:19;5.88;;;3.50;;
19414;SDS011;9843;48.882;12.592;2023-06-24T08:20:46;5.10;;;3.70;;
19414;SDS011;9843;48.882;12.592;2023-06-24T08:23:13;3.55;;;3.05;;
19414;SDS011;9843;48.882;12.592;2023-06-24T08:25:41;4.50;;;3.65;;
19414;SDS011;9843;48.882;12.592;2023-06-24T08:28:08;4.32;;;3.05;;
19414;SDS011;9843;48.882;12.592;2023-06-24T08:30:35;4.82;;;4.03;;
19414;SDS011;9843;48.882;12.592;2023-06-24T08:33:02;5.30;;;4.03;;
19414;SDS011;9843;48.882;12.592;2023-06-24T08:35:29;5.40;;;3.47;;
19414;SDS011;9843;48.882;12.592;2023-06-24T08:37:56;4.35;;;3.95;;
19414;SDS011;9843;48.882;12.592;2023-06-24T08:40:23;5.00;;;4.50;;
19414;SDS011;9843;48.882;12.592;2023-06-24T08:42:51;5.57;;;3.30;;
19414;SDS011;9843;48.882;12.592;2023-06-24T08:45:19;8.90;;;4.68;;
19414;SDS011;9843;48.882;12.592;2023-06-24T08:47:46;7.15;;;5.03;;
19414;SDS011;9843;48.882;12.592;2023-06-24T08:50:15;4.30;;;3.72;;
19414;SDS011;9843;48.882;12.592;2023-06-24T08:52:43;5.78;;;4.85;;
19414;SDS011;9843;48.882;12.592;2023-06-24T08:55:12;7.22;;;4.60;;
19414;SDS011;9843;48.882;12.592;2023-06-24T08:57:41;5.75;;;3.78;;
19414;SDS011;9843;48.882;12.592;2023-06-24T09:00:10;5.03;;;3.80;;
19414;SDS011;9843;48.882;12.592;2023-06-24T09:02:37;5.88;;;4.00;;
19414;SDS011;9843;48.882;12.592;2023-06-24T09:05:04;5.43;;;3.05;;
19414;SDS011;9843;48.882;12.592;2023-06-24T09:07:31;4.43;;;3.33;;
19414;SDS011;9843;48.882;12.592;2023-06-24T09:09:58;5.00;;;3.60;;
19414;SDS011;9843;48.882;12.592;2023-06-24T09:12:26;3.47;;;3.17;;
19414;SDS011;9843;48.882;12.592;2023-06-24T09:14:53;4.22;;;3.30;;
19414;SDS011;9843;48.882;12.592;2023-06-24T09:17:22;4.93;;;3.63;;
19414;SDS011;9843;48.882;12.592;2023-06-24T09:19:49;5.50;;;4.05;;
19414;SDS011;9843;48.882;12.592;2023-06-24T09:22:16;5.35;;;4.10;;
19414;SDS011;9843;48.882;12.592;2023-06-24T09:24:44;4.68;;;4.10;;
19414;SDS011;9843;48.882;12.592;2023-06-24T09:27:12;5.68;;;3.40;;
19414;SDS011;9843;48.882;12.592;2023-06-24T09:29:40;3.50;;;3.20;;
19414;SDS011;9843;48.882;12.592;2023-06-24T09:32:07;3.42;;;3.05;;
19414;SDS011;9843;48.882;12.592;2023-06-24T09:34:35;9.13;;;3.55;;
19414;SDS011;9843;48.882;12.592;2023-06-24T09:37:03;4.90;;;3.60;;
19414;SDS011;9843;48.882;12.592;2023-06-24T09:39:34;4.70;;;2.78;;
19414;SDS011;9843;48.882;12.592;2023-06-24T09:42:02;3.55;;;3.20;;
19414;SDS011;9843;48.882;12.592;2023-06-24T09:44:30;3.50;;;3.20;;
19414;SDS011;9843;48.882;12.592;2023-06-24T09:46:57;4.97;;;3.28;;
19414;SDS011;9843;48.882;12.592;2023-06-24T09:49:24;2.67;;;2.42;;
19414;SDS011;9843;48.882;12.592;2023-06-24T09:51:55;3.08;;;2.50;;
19414;SDS011;9843;48.882;12.592;2023-06-24T09:54:22;3.95;;;3.20;;
19414;SDS011;9843;48.882;12.592;2023-06-24T09:56:51;4.78;;;2.55;;
19414;SDS011;9843;48.882;12.592;2023-06-24T09:59:21;5.15;;;2.25;;
19414;SDS011;9843;48.882;12.592;2023-06-24T10:01:49;7.80;;;3.22;;
19414;SDS011;9843;48.882;12.592;2023-06-24T10:04:17;5.65;;;2.78;;
19414;SDS011;9843;48.882;12.592;2023-06-24T10:06:44;4.05;;;2.47;;
19414;SDS011;9843;48.882;12.592;2023-06-24T10:09:12;3.78;;;3.13;;
19414;SDS011;9843;48.882;12.592;2023-06-24T10:11:42;2.45;;;2.25;;
19414;SDS011;9843;48.882;12.592;2023-06-24T10:14:09;4.70;;;3.17;;
19414;SDS011;9843;48.882;12.592;2023-06-24T10:16:36;3.15;;;2.75;;
19414;SDS011;9843;48.882;12.592;2023-06-24T10:19:03;8.68;;;1.90;;
19414;SDS011;9843;48.882;12.592;2023-06-24T10:21:46;2.90;;;2.47;;
19414;SDS011;9843;48.882;12.592;2023-06-24T10:24:14;2.53;;;1.98;;
19414;SDS011;9843;48.882;12.592;2023-06-24T10:26:54;3.63;;;1.70;;
19414;SDS011;9843;48.882;12.592;2023-06-24T10:29:30;3.92;;;2.25;;
19414;SDS011;9843;48.882;12.592;2023-06-24T10:31:57;2.13;;;1.85;;
19414;SDS011;9843;48.882;12.592;2023-06-24T10:34:27;5.53;;;1.73;;
19414;SDS011;9843;48.882;12.592;2023-06-24T10:36:54;2.80;;;1.90;;
19414;SDS011;9843;48.882;12.592;2023-06-24T10:42:33;4.55;;;2.08;;
19414;SDS011;9843;48.882;12.592;2023-06-24T10:45:12;4.55;;;2.47;;
19414;SDS011;9843;48.882;12.592;2023-06-24T10:47:40;1.95;;;1.73;;
19414;SDS011;9843;48.882;12.592;2023-06-24T10:50:11;2.35;;;1.80;;
19414;SDS011;9843;48.882;12.592;2023-06-24T10:52:38;2.72;;;2.15;;
19414;SDS011;9843;48.882;12.592;2023-06-24T10:55:06;2.20;;;1.63;;
19414;SDS011;9843;48.882;12.592;2023-06-24T10:57:34;2.47;;;1.90;;
19414;SDS011;9843;48.882;12.592;2023-06-24T11:00:02;4.30;;;1.63;;
19414;SDS011;9843;48.882;12.592;2023-06-24T11:02:29;3.63;;;2.30;;
19414;SDS011;9843;48.882;12.592;2023-06-24T11:04:57;4.15;;;2.00;;
19414;SDS011;9843;48.882;12.592;2023-06-24T11:07:25;2.65;;;1.90;;
19414;SDS011;9843;48.882;12.592;2023-06-24T11:09:53;2.17;;;1.85;;
19414;SDS011;9843;48.882;12.592;2023-06-24T11:12:23;2.90;;;1.92;;
19414;SDS011;9843;48.882;12.592;2023-06-24T11:14:52;1.73;;;1.60;;
19414;SDS011;9843;48.882;12.592;2023-06-24T11:17:22;3.10;;;1.80;;
19414;SDS011;9843;48.882;12.592;2023-06-24T11:19:49;2.40;;;1.63;;
19414;SDS011;9843;48.882;12.592;2023-06-24T11:22:16;2.60;;;1.73;;
19414;SDS011;9843;48.882;12.592;2023-06-24T11:24:43;4.03;;;1.77;;
19414;SDS011;9843;48.882;12.592;2023-06-24T11:27:10;4.18;;;1.58;;
19414;SDS011;9843;48.882;12.592;2023-06-24T11:29:37;2.22;;;2.03;;
19414;SDS011;9843;48.882;12.592;2023-06-24T11:32:08;3.00;;;2.40;;
19414;SDS011;9843;48.882;12.592;2023-06-24T11:34:35;3.70;;;2.97;;
19414;SDS011;9843;48.882;12.592;2023-06-24T11:37:09;2.15;;;1.83;;
19414;SDS011;9843;48.882;12.592;2023-06-24T11:39:36;4.82;;;2.10;;
19414;SDS011;9843;48.882;12.592;2023-06-24T11:42:05;2.47;;;2.25;;
19414;SDS011;9843;48.882;12.592;2023-06-24T11:44:33;3.17;;;2.60;;
19414;SDS011;9843;48.882;12.592;2023-06-24T11:47:04;2.92;;;2.28;;
19414;SDS011;9843;48.882;12.592;2023-06-24T11:49:36;4.22;;;2.28;;
19414;SDS011;9843;48.882;12.592;2023-06-24T11:52:14;3.10;;;2.30;;
19414;SDS011;9843;48.882;12.592;2023-06-24T11:54:41;2.42;;;1.30;;
19414;SDS011;9843;48.882;12.592;2023-06-24T11:57:09;2.22;;;1.50;;
19414;SDS011;9843;48.882;12.592;2023-06-24T11:59:38;3.08;;;2.22;;
19414;SDS011;9843;48.882;12.592;2023-06-24T12:02:05;3.38;;;2.08;;
19414;SDS011;9843;48.882;12.592;2023-06-24T12:04:33;3.63;;;1.77;;
19414;SDS011;9843;48.882;12.592;2023-06-24T12:07:02;2.22;;;1.27;;
19414;SDS011;9843;48.882;12.592;2023-06-24T12:09:29;3.88;;;1.65;;
19414;SDS011;9843;48.882;12.592;2023-06-24T12:11:56;2.10;;;1.83;;
19414;SDS011;9843;48.882;12.592;2023-06-24T12:14:23;2.50;;;2.20;;
19414;SDS011;9843;48.882;12.592;2023-06-24T12:16:50;4.20;;;2.47;;
19414;SDS011;9843;48.882;12.592;2023-06-24T12:19:17;5.43;;;2.45;;
19414;SDS011;9843;48.882;12.592;2023-06-24T12:21:47;3.65;;;2.50;;
19414;SDS011;9843;48.882;12.592;2023-06-24T12:24:14;2.83;;;2.35;;
19414;SDS011;9843;48.882;12.592;2023-06-24T12:26:41;2.30;;;1.63;;
19414;SDS011;9843;48.882;12.592;2023-06-24T12:29:08;2.30;;;2.10;;
19414;SDS011;9843;48.882;12.592;2023-06-24T12:31:35;2.55;;;2.05;;
19414;SDS011;9843;48.882;12.592;2023-06-24T12:34:02;2.15;;;1.75;;
19414;SDS011;9843;48.882;12.592;2023-06-24T12:36:30;2.15;;;1.80;;
19414;SDS011;9843;48.882;12.592;2023-06-24T12:38:58;1.58;;;1.40;;
19414;SDS011;9843;48.882;12.592;2023-06-24T12:41:25;2.67;;;2.05;;
19414;SDS011;9843;48.882;12.592;2023-06-24T12:43:53;6.35;;;2.33;;
19414;SDS011;9843;48.882;12.592;2023-06-24T12:46:20;2.60;;;2.15;;
19414;SDS011;9843;48.882;12.592;2023-06-24T12:48:47;3.42;;;2.25;;
19414;SDS011;9843;48.882;12.592;2023-06-24T12:51:14;2.78;;;2.05;;
19414;SDS011;9843;48.882;12.592;2023-06-24T12:53:41;2.67;;;1.63;;
19414;SDS011;9843;48.882;12.592;2023-06-24T12:56:09;2.47;;;2.28;;
19414;SDS011;9843;48.882;12.592;2023-06-24T12:58:36;3.42;;;2.20;;
19414;SDS011;9843;48.882;12.592;2023-06-24T13:01:03;1.88;;;1.65;;
19414;SDS011;9843;48.882;12.592;2023-06-24T13:03:30;3.53;;;1.52;;
19414;SDS011;9843;48.882;12.592;2023-06-24T13:05:57;3.00;;;1.67;;
19414;SDS011;9843;48.882;12.592;2023-06-24T13:08:24;2.53;;;2.33;;
19414;SDS011;9843;48.882;12.592;2023-06-24T13:10:51;2.95;;;1.63;;
19414;SDS011;9843;48.882;12.592;2023-06-24T13:13:20;2.78;;;1.77;;
19414;SDS011;9843;48.882;12.592;2023-06-24T13:15:47;2.42;;;2.03;;
19414;SDS011;9843;48.882;12.592;2023-06-24T13:18:14;2.20;;;1.75;;
19414;SDS011;9843;48.882;12.592;2023-06-24T13:20:42;2.53;;;1.77;;
19414;SDS011;9843;48.882;12.592;2023-06-24T13:23:10;3.38;;;2.70;;
19414;SDS011;9843;48.882;12.592;2023-06-24T13:25:37;2.42;;;2.00;;
19414;SDS011;9843;48.882;12.592;2023-06-24T13:28:04;4.18;;;1.60;;
19414;SDS011;9843;48.882;12.592;2023-06-24T13:30:33;2.67;;;1.73;;
19414;SDS011;9843;48.882;12.592;2023-06-24T13:33:00;2.33;;;1.73;;
19414;SDS011;9843;48.882;12.592;2023-06-24T13:35:27;2.75;;;2.03;;
19414;SDS011;9843;48.882;12.592;2023-06-24T13:37:54;2.72;;;1.67;;
19414;SDS011;9843;48.882;12.592;2023-06-24T13:40:23;3.00;;;1.85;;
19414;SDS011;9843;48.882;12.592;2023-06-24T13:42:50;2.60;;;2.08;;
19414;SDS011;9843;48.882;12.592;2023-06-24T13:45:17;3.67;;;2.03;;
19414;SDS011;9843;48.882;12.592;2023-06-24T13:47:46;2.13;;;1.83;;
19414;SDS011;9843;48.882;12.592;2023-06-24T13:50:13;2.97;;;1.80;;
19414;SDS011;9843;48.882;12.592;2023-06-24T13:52:40;2.25;;;1.75;;
19414;SDS011;9843;48.882;12.592;2023-06-24T13:55:07;4.80;;;1.65;;
19414;SDS011;9843;48.882;12.592;2023-06-24T13:57:35;3.80;;;2.05;;
19414;SDS011;9843;48.882;12.592;2023-06-24T14:00:02;2.42;;;2.20;;
19414;SDS011;9843;48.882;12.592;2023-06-24T14:02:29;5.50;;;2.22;;
19414;SDS011;9843;48.882;12.592;2023-06-24T14:04:57;3.67;;;2.30;;
19414;SDS011;9843;48.882;12.592;2023-06-24T14:07:24;1.73;;;1.27;;
19414;SDS011;9843;48.882;12.592;2023-06-24T14:09:51;2.97;;;1.75;;
19414;SDS011;9843;48.882;12.592;2023-06-24T14:12:18;1.70;;;1.33;;
19414;SDS011;9843;48.882;12.592;2023-06-24T14:14:45;2.38;;;1.85;;
19414;SDS011;9843;48.882;12.592;2023-06-24T14:17:12;2.05;;;1.83;;
19414;SDS011;9843;48.882;12.592;2023-06-24T14:19:39;1.85;;;1.52;;
19414;SDS011;9843;48.882;12.592;2023-06-24T14:22:08;3.53;;;2.20;;
19414;SDS011;9843;48.882;12.592;2023-06-24T14:24:35;3.63;;;1.60;;
19414;SDS011;9843;48.882;12.592;2023-06-24T14:27:03;2.65;;;2.05;;
19414;SDS011;9843;48.882;12.592;2023-06-24T14:29:30;3.13;;;2.20;;
19414;SDS011;9843;48.882;12.592;2023-06-24T14:31:57;2.83;;;1.92;;
19414;SDS011;9843;48.882;12.592;2023-06-24T14:34:24;2.33;;;1.60;;
19414;SDS011;9843;48.882;12.592;2023-06-24T14:36:54;3.60;;;1.88;;
19414;SDS011;9843;48.882;12.592;2023-06-24T14:39:22;2.92;;;1.50;;
19414;SDS011;9843;48.882;12.592;2023-06-24T14:41:49;3.08;;;2.33;;
19414;SDS011;9843;48.882;12.592;2023-06-24T14:44:16;3.05;;;2.05;;
19414;SDS011;9843;48.882;12.592;2023-06-24T14:46:43;4.03;;;2.45;;
19414;SDS011;9843;48.882;12.592;2023-06-24T14:49:10;5.05;;;3.25;;
19414;SDS011;9843;48.882;12.592;2023-06-24T14:51:37;2.42;;;1.63;;
19414;SDS011;9843;48.882;12.592;2023-06-24T14:54:04;2.05;;;1.48;;